Time;durP1;ratioP1;P1;durP2;ratioP2;P2;SDS_P1;SDS_P2;PMS_P1;PMS_P2;Temp;Humidity;BMP_temperature;BMP_pressure;BME280_temperature;BME280_humidity;BME280_pressure;Samples;Min_cycle;Max_cycle;Signal;HPM_P1;HPM_P2
2022/02/10 00:07:03;;;;;;;9.48;2.92;;;;;;;1.75;92.67;100533.12;1733716;82;21876;-83
2022/02/10 00:20:28;;;;;;;7.08;3.27;;;;;;;1.85;92.31;100507.66;1732618;82;21842;-83
2022/02/10 00:23:16;;;;;;;7.50;3.22;;;;;;;1.83;92.10;100506.05;1731755;82;21754;-83
2022/02/10 00:36:08;;;;;;;8.50;4.10;;;;;;;1.75;92.24;100516.08;1732698;82;21360;-82
2022/02/10 00:42:33;;;;;;;10.90;4.92;;;;;;;1.70;92.24;100520.96;1726823;82;21837;-83
2022/02/10 00:45:40;;;;;;;13.60;5.30;;;;;;;1.66;92.16;100511.37;1692002;85;21294;-76
2022/02/10 00:48:47;;;;;;;10.25;5.10;;;;;;;1.60;92.18;100503.27;1692176;85;21200;-80
2022/02/10 00:51:52;;;;;;;12.28;5.35;;;;;;;1.50;92.21;100496.31;1691664;85;21210;-75
2022/02/10 00:54:57;;;;;;;14.00;6.45;;;;;;;1.39;92.32;100496.75;1692336;85;21307;-83
2022/02/10 00:58:06;;;;;;;10.00;5.95;;;;;;;1.28;92.65;100499.75;1685249;83;21738;-76
2022/02/10 01:11:56;;;;;;;12.18;6.20;;;;;;;0.95;94.59;100522.41;1726897;81;21314;-83
2022/02/10 01:29:35;;;;;;;18.23;8.38;;;;;;;0.82;96.79;100525.59;1692614;85;21766;-75
2022/02/10 01:31:07;;;;;;;16.77;7.45;;;;;;;0.78;97.25;100525.42;1692487;85;21284;-76
2022/02/10 01:34:12;;;;;;;13.95;7.28;;;;;;;0.74;97.34;100520.25;1692413;85;21323;-83
2022/02/10 01:37:17;;;;;;;15.08;7.40;;;;;;;0.72;97.37;100517.30;1692318;85;21193;-83
2022/02/10 02:03:33;;;;;;;15.88;7.47;;;;;;;0.51;99.02;100528.59;1725789;83;21332;-75
2022/02/10 02:06:49;;;;;;;19.48;7.58;;;;;;;0.50;99.24;100528.70;1725985;83;21344;-75
2022/02/10 02:09:54;;;;;;;14.15;5.97;;;;;;;0.50;99.43;100519.28;1726054;83;21359;-82
2022/02/10 02:13:00;;;;;;;17.37;7.83;;;;;;;0.51;99.54;100522.34;1724553;81;21197;-75
2022/02/10 02:16:05;;;;;;;22.15;8.03;;;;;;;0.46;99.52;100523.16;1725118;83;21261;-75
2022/02/10 02:19:09;;;;;;;15.35;8.00;;;;;;;0.42;99.66;100531.06;1724864;83;21269;-76
2022/02/10 02:22:18;;;;;;;22.20;8.00;;;;;;;0.42;99.74;100533.26;1724831;83;21313;-75
2022/02/10 02:25:17;;;;;;;12.68;6.62;;;;;;;0.40;99.68;100539.73;1724800;83;21758;-83
2022/02/10 02:28:09;;;;;;;16.85;8.10;;;;;;;0.37;99.75;100535.41;1724927;83;21328;-75
2022/02/10 02:31:18;;;;;;;13.88;6.15;;;;;;;0.36;99.90;100535.53;1685230;84;21378;-75
2022/02/10 02:35:06;;;;;;;14.98;7.08;;;;;;;0.34;100.00;100530.75;1680511;85;21319;-75
2022/02/10 02:38:09;;;;;;;13.90;7.05;;;;;;;0.32;100.00;100516.52;1680409;85;21308;-75
2022/02/10 03:07:47;;;;;;;18.17;6.58;;;;;;;0.36;100.00;100536.88;1727668;81;21340;-75
2022/02/10 03:13:59;;;;;;;14.35;7.35;;;;;;;0.33;100.00;100531.69;1696219;83;21319;-76
2022/02/10 03:17:33;;;;;;;14.30;6.28;;;;;;;0.32;100.00;100538.05;1691455;83;21324;-75
2022/02/10 03:20:27;;;;;;;17.90;6.92;;;;;;;0.33;100.00;100550.07;1690862;85;21225;-76
2022/02/10 04:11:03;;;;;;;18.98;6.72;;;;;;;0.45;100.00;100552.39;1695255;84;22359;-75
2022/02/10 05:00:07;;;;;;;20.17;9.05;;;;;;;0.45;99.23;100555.08;1705960;83;21286;-82
2022/02/10 05:33:13;;;;;;;28.80;13.45;;;;;;;0.71;97.74;100546.55;1708980;82;21315;-75
2022/02/10 05:36:06;;;;;;;37.73;16.02;;;;;;;0.78;97.69;100545.63;1738343;82;21517;-75
2022/02/10 05:39:20;;;;;;;30.88;13.15;;;;;;;0.87;97.76;100546.32;1724457;82;21271;-76
2022/02/10 05:46:37;;;;;;;32.55;15.10;;;;;;;1.08;97.62;100547.47;1719570;82;21299;-74
2022/02/10 05:49:20;;;;;;;36.68;16.45;;;;;;;1.18;97.40;100547.20;1710191;82;21351;-83
2022/02/10 05:55:31;;;;;;;26.80;11.60;;;;;;;1.35;96.65;100551.84;1717975;82;21877;-75
2022/02/10 06:52:36;;;;;;;25.62;8.83;;;;;;;1.80;94.48;100554.35;1757961;79;21794;-75
2022/02/10 07:09:27;;;;;;;20.65;9.08;;;;;;;2.01;93.56;100554.08;1764226;79;21228;-76
2022/02/10 07:12:47;;;;;;;24.77;8.70;;;;;;;2.06;93.28;100552.37;1755913;80;21775;-84
2022/02/10 08:49:57;;;;;;;30.40;11.90;;;;;;;2.89;87.24;100476.59;1714564;83;21295;-82
2022/02/10 08:56:36;;;;;;;29.15;11.03;;;;;;;2.95;88.03;100478.80;1720957;83;21303;-83
2022/02/10 09:06:28;;;;;;;26.65;12.85;;;;;;;3.41;87.41;100488.58;1634138;85;21336;-83
2022/02/10 09:13:11;;;;;;;26.97;11.35;;;;;;;3.68;86.67;100482.73;1713243;83;21295;-82
2022/02/10 09:23:48;;;;;;;25.57;10.70;;;;;;;3.91;85.22;100470.48;1703990;83;21333;-76
2022/02/10 09:47:37;;;;;;;16.23;8.15;;;;;;;3.96;85.19;100471.80;1720514;83;21220;-75
2022/02/10 09:54:19;;;;;;;24.12;10.25;;;;;;;3.94;86.85;100433.66;1702639;81;21344;-82
2022/02/10 09:59:49;;;;;;;23.85;10.08;;;;;;;3.99;87.25;100420.09;1710149;82;21405;-82
2022/02/10 10:02:43;;;;;;;26.73;11.68;;;;;;;3.99;87.54;100426.01;1711579;83;21723;-82
2022/02/10 10:05:47;;;;;;;37.20;13.55;;;;;;;4.03;87.76;100416.64;1709479;83;21317;-76
2022/02/10 10:09:09;;;;;;;35.90;13.93;;;;;;;4.07;87.99;100417.59;1710890;82;21754;-75
2022/02/10 10:22:05;;;;;;;28.70;12.58;;;;;;;4.15;88.29;100430.98;1724773;82;22262;-76
2022/02/10 10:26:02;;;;;;;33.05;15.08;;;;;;;4.12;88.62;100429.39;1709837;82;21269;-82
2022/02/10 10:55:27;;;;;;;35.70;14.65;;;;;;;4.39;90.43;100417.16;1706504;82;21891;-76
2022/02/10 10:58:16;;;;;;;30.52;13.18;;;;;;;4.47;90.49;100417.33;1718778;82;21347;-75
2022/02/10 11:42:40;;;;;;;31.60;17.02;;;;;;;4.94;92.52;100420.38;1719023;83;21291;-76
2022/02/10 11:47:22;;;;;;;;;;;;;;;;;;;;;
2022/02/10 12:36:35;;;;;;;28.23;20.55;;;;;;;5.58;99.10;100441.67;1707533;83;21249;-84
2022/02/10 12:39:51;;;;;;;28.50;21.12;;;;;;;5.64;99.36;100435.67;1697219;83;21868;-76
2022/02/10 12:43:24;;;;;;;35.85;22.77;;;;;;;5.67;99.48;100443.54;1739973;82;21196;-76
2022/02/10 13:31:09;;;;;;;30.02;20.72;;;;;;;5.50;100.00;100476.78;1723751;82;21283;-77
2022/02/10 14:14:32;;;;;;;17.40;12.73;;;;;;;5.09;100.00;100509.86;1716107;83;21760;-83
2022/02/10 14:17:36;;;;;;;16.35;12.13;;;;;;;5.11;100.00;100517.34;1705548;83;21353;-83
2022/02/10 14:26:55;;;;;;;19.17;13.78;;;;;;;5.09;100.00;100528.34;1726258;83;21359;-76
2022/02/10 14:30:00;;;;;;;16.70;12.63;;;;;;;5.05;100.00;100531.45;1698875;84;21244;-76
2022/02/10 14:33:06;;;;;;;20.88;13.72;;;;;;;4.99;100.00;100529.30;1706133;83;21849;-77
2022/02/10 14:36:20;;;;;;;17.87;12.33;;;;;;;4.96;100.00;100519.57;1705556;83;21825;-83
2022/02/10 14:39:30;;;;;;;18.12;13.30;;;;;;;4.93;100.00;100518.97;1713840;83;21327;-84
2022/02/10 16:19:31;;;;;;;29.10;20.10;;;;;;;4.38;100.00;100588.78;1784703;80;21297;-83
2022/02/10 16:22:47;;;;;;;28.47;19.00;;;;;;;4.44;100.00;100581.48;1784794;80;21300;-83
2022/02/10 16:25:57;;;;;;;27.27;19.82;;;;;;;4.48;100.00;100581.09;1784856;80;21149;-79
2022/02/10 16:28:57;;;;;;;25.40;18.07;;;;;;;4.49;100.00;100586.88;1784684;80;21149;-75
2022/02/10 16:32:03;;;;;;;30.30;20.12;;;;;;;4.49;100.00;100583.31;1784704;80;21194;-75
2022/02/10 16:35:10;;;;;;;25.95;17.48;;;;;;;4.49;100.00;100592.29;1759563;80;21288;-82
2022/02/10 16:38:14;;;;;;;26.82;18.60;;;;;;;4.49;100.00;100582.81;1784793;80;21180;-82
2022/02/10 16:41:21;;;;;;;25.40;18.02;;;;;;;4.49;100.00;100581.95;1784832;80;21196;-83
2022/02/10 16:44:26;;;;;;;25.23;18.35;;;;;;;4.50;100.00;100583.16;1784823;80;21312;-76
2022/02/10 16:47:31;;;;;;;28.62;20.00;;;;;;;4.48;100.00;100572.11;1784506;80;21811;-82
2022/02/10 16:50:37;;;;;;;29.30;20.95;;;;;;;4.49;100.00;100581.95;1783387;80;21710;-75
2022/02/10 16:53:49;;;;;;;25.43;18.95;;;;;;;4.50;100.00;100581.81;1784698;80;21785;-76
2022/02/10 16:57:08;;;;;;;27.07;18.87;;;;;;;4.54;100.00;100590.55;1784646;80;21315;-82
2022/02/10 17:00:36;;;;;;;24.77;17.80;;;;;;;4.56;100.00;100596.67;1785124;80;21754;-76
2022/02/10 17:17:21;;;;;;;27.40;18.67;;;;;;;4.33;100.00;100604.93;1784859;80;21323;-75
2022/02/10 17:36:31;;;;;;;29.37;22.15;;;;;;;3.95;100.00;100612.19;1784407;80;21165;-82
2022/02/10 17:43:45;;;;;;;31.25;20.08;;;;;;;3.83;100.00;100609.13;1784724;80;21323;-82
2022/02/10 17:46:14;;;;;;;34.20;23.27;;;;;;;3.85;100.00;100612.55;1783939;80;21506;-82
2022/02/10 17:52:55;;;;;;;37.88;26.62;;;;;;;3.86;100.00;100617.00;1781265;80;21262;-76
2022/02/10 17:55:51;;;;;;;34.78;24.63;;;;;;;3.87;100.00;100617.36;1778934;80;21294;-77
2022/02/10 17:58:57;;;;;;;35.88;26.05;;;;;;;3.91;100.00;100613.42;1783940;80;21157;-77
2022/02/10 18:02:02;;;;;;;31.37;21.30;;;;;;;3.93;100.00;100612.78;1783472;80;21315;-83
2022/02/10 18:05:15;;;;;;;36.63;24.82;;;;;;;3.95;100.00;100618.95;1782956;80;21188;-81
2022/02/10 18:08:18;;;;;;;34.03;24.12;;;;;;;3.99;100.00;100614.13;1765498;80;21771;-76
2022/02/10 18:12:10;;;;;;;38.78;25.97;;;;;;;4.02;100.00;100624.21;1767651;81;21793;-83
2022/02/10 18:14:53;;;;;;;39.85;27.70;;;;;;;4.05;100.00;100619.05;1733224;82;21896;-83
2022/02/10 18:18:02;;;;;;;35.20;25.48;;;;;;;4.09;100.00;100616.42;1731873;82;21682;-82
2022/02/10 18:21:27;;;;;;;40.25;29.20;;;;;;;4.10;100.00;100613.62;1771197;81;21276;-82
2022/02/10 18:24:39;;;;;;;39.60;28.52;;;;;;;4.16;100.00;100616.80;1770721;81;21273;-76
2022/02/10 18:30:22;;;;;;;38.17;26.50;;;;;;;4.22;100.00;100609.01;1768995;81;21244;-82
2022/02/10 18:33:40;;;;;;;32.63;24.02;;;;;;;4.25;100.00;100610.12;1740605;81;21679;-83
2022/02/10 19:09:56;;;;;;;34.38;19.00;;;;;;;4.26;100.00;100615.89;1744751;82;21225;-76
2022/02/10 19:13:02;;;;;;;29.55;20.37;;;;;;;4.27;100.00;100614.90;1746978;82;21376;-75
2022/02/10 19:16:09;;;;;;;31.82;20.85;;;;;;;4.29;100.00;100612.94;1753508;80;21161;-76
2022/02/10 19:19:16;;;;;;;27.48;18.80;;;;;;;4.30;100.00;100616.50;1778964;80;21307;-75
2022/02/10 19:22:22;;;;;;;28.73;19.15;;;;;;;4.31;100.00;100615.51;1778342;80;21311;-77
2022/02/10 19:25:27;;;;;;;26.35;19.55;;;;;;;4.30;100.00;100616.50;1779096;80;21310;-76
2022/02/10 19:28:34;;;;;;;31.15;22.10;;;;;;;4.32;100.00;100612.66;1779203;80;21790;-83
2022/02/10 19:31:39;;;;;;;24.80;17.73;;;;;;;4.35;100.00;100617.83;1765881;80;21256;-76
2022/02/10 19:34:46;;;;;;;22.65;16.85;;;;;;;4.42;100.00;100618.66;1748368;82;21295;-83
2022/02/10 19:37:56;;;;;;;29.95;21.15;;;;;;;4.45;100.00;100616.56;1748333;82;21896;-77
2022/02/10 19:40:59;;;;;;;26.85;19.17;;;;;;;4.46;100.00;100619.63;1748230;82;21807;-83
2022/02/10 19:44:06;;;;;;;32.95;21.45;;;;;;;4.48;100.00;100616.31;1748040;82;21288;-76
2022/02/10 19:47:11;;;;;;;29.37;21.48;;;;;;;4.50;100.00;100613.46;1755887;80;21187;-76
2022/02/10 19:50:25;;;;;;;29.63;19.37;;;;;;;4.50;100.00;100603.48;1761219;81;21808;-76
2022/02/10 19:53:28;;;;;;;36.65;24.57;;;;;;;4.48;100.00;100604.62;1761139;81;21291;-76
2022/02/10 19:56:34;;;;;;;39.70;26.50;;;;;;;4.48;100.00;100604.62;1760907;81;21310;-83
2022/02/10 19:59:39;;;;;;;33.00;23.87;;;;;;;4.52;100.00;100595.25;1740364;81;21168;-83
2022/02/10 20:02:45;;;;;;;32.78;24.50;;;;;;;4.53;100.00;100603.73;1759942;79;21302;-83
2022/02/10 20:05:51;;;;;;;30.50;23.52;;;;;;;4.57;100.00;100606.55;1761013;81;21212;-75
2022/02/10 20:08:56;;;;;;;34.80;25.48;;;;;;;4.58;100.00;100602.84;1761181;81;21820;-82
2022/02/10 20:12:02;;;;;;;41.70;25.40;;;;;;;4.61;100.00;100602.56;1718558;83;21202;-82
2022/02/10 20:15:10;;;;;;;36.40;24.95;;;;;;;4.66;100.00;100604.41;1718556;83;21178;-82
2022/02/10 20:18:15;;;;;;;33.42;23.30;;;;;;;4.68;99.92;100602.41;1718558;83;21328;-76
2022/02/10 20:21:20;;;;;;;42.10;26.48;;;;;;;4.68;99.70;100597.00;1718685;83;21226;-75
2022/02/10 20:24:25;;;;;;;43.25;27.73;;;;;;;4.67;99.52;100596.64;1718738;83;21316;-82
2022/02/10 20:27:30;;;;;;;35.40;24.23;;;;;;;4.67;99.41;100612.89;1718222;83;21921;-83
2022/02/10 20:30:36;;;;;;;37.60;25.92;;;;;;;4.68;99.28;100611.90;1718616;83;21271;-81
2022/02/10 20:33:42;;;;;;;37.88;26.20;;;;;;;4.71;99.19;100608.94;1718459;83;21819;-75
2022/02/10 20:36:48;;;;;;;38.65;24.43;;;;;;;4.69;98.85;100607.34;1718043;83;21551;-82
2022/02/10 20:39:54;;;;;;;36.45;26.00;;;;;;;4.67;98.79;100614.25;1717191;83;21317;-80
2022/02/10 20:43:04;;;;;;;38.50;25.62;;;;;;;4.67;98.79;100613.39;1717271;83;21842;-82
2022/02/10 20:46:10;;;;;;;40.45;25.37;;;;;;;4.67;98.76;100606.13;1721403;80;21926;-83
2022/02/10 20:49:18;;;;;;;41.95;24.72;;;;;;;4.63;98.55;100608.73;1733458;83;21306;-82
2022/02/10 20:52:25;;;;;;;37.48;26.07;;;;;;;4.58;98.61;100606.91;1732200;82;21211;-82
2022/02/10 20:55:29;;;;;;;40.83;26.07;;;;;;;4.59;98.82;100604.55;1731984;83;21203;-83
2022/02/10 20:58:36;;;;;;;36.68;24.20;;;;;;;4.60;99.06;100611.19;1732250;83;21808;-83
2022/02/10 21:01:43;;;;;;;37.13;26.30;;;;;;;4.64;99.07;100610.94;1738614;80;21227;-82
2022/02/10 21:08:20;;;;;;;34.57;23.97;;;;;;;4.59;98.72;100616.75;1745783;82;21295;-83
2022/02/10 21:11:23;;;;;;;37.23;25.30;;;;;;;4.57;98.80;100610.61;1763707;80;21185;-82
2022/02/10 21:14:29;;;;;;;40.00;24.27;;;;;;;4.54;99.02;100614.42;1784812;80;21327;-82
2022/02/10 21:17:35;;;;;;;39.25;24.23;;;;;;;4.55;99.31;100611.22;1784591;79;21303;-75
2022/02/10 21:20:42;;;;;;;33.63;22.62;;;;;;;4.55;99.47;100608.02;1784642;80;21634;-82
2022/02/10 21:23:54;;;;;;;33.25;21.20;;;;;;;4.53;99.58;100606.44;1784584;80;21822;-82
2022/02/10 21:27:27;;;;;;;31.27;22.58;;;;;;;4.55;99.90;100600.38;1783977;80;21311;-76
2022/02/10 21:30:16;;;;;;;31.77;22.02;;;;;;;4.53;99.90;100605.09;1784780;80;21276;-76
2022/02/10 21:33:52;;;;;;;30.27;21.15;;;;;;;4.51;100.00;100606.55;1784845;80;21854;-82
2022/02/10 21:39:49;;;;;;;;;;;;;;;4.51;100.00;100596.21;1787454;80;21702;-76
2022/02/10 21:53:37;;;;;;;30.48;21.93;;;;;;;4.63;100.00;100597.89;1784699;80;21842;-76
2022/02/10 21:56:28;;;;;;;31.60;21.87;;;;;;;4.61;100.00;100592.61;1784702;80;21817;-82
2022/02/10 22:22:19;;;;;;;30.32;20.37;;;;;;;4.22;100.00;100585.99;1770857;81;21901;-82
2022/02/10 22:25:19;;;;;;;30.62;21.23;;;;;;;4.20;100.00;100592.05;1762841;81;21181;-75
2022/02/10 22:34:41;;;;;;;32.20;21.93;;;;;;;4.05;100.00;100583.36;1770985;81;21268;-76
2022/02/10 22:37:48;;;;;;;31.50;22.32;;;;;;;4.01;100.00;100583.75;1769759;81;21189;-83
2022/02/10 22:41:02;;;;;;;29.98;20.88;;;;;;;3.98;100.00;100589.41;1770289;81;22056;-83
2022/02/10 22:44:05;;;;;;;30.80;20.15;;;;;;;3.94;100.00;100588.79;1770725;81;21269;-75
2022/02/10 22:47:13;;;;;;;30.55;21.68;;;;;;;3.92;100.00;100587.22;1770152;81;21296;-75
2022/02/10 22:50:18;;;;;;;33.20;23.40;;;;;;;3.84;100.00;100586.48;1769613;81;21213;-78
2022/02/10 22:53:23;;;;;;;33.80;21.20;;;;;;;3.81;100.00;100585.37;1770935;81;21280;-76
2022/02/10 22:56:29;;;;;;;33.48;23.05;;;;;;;3.79;100.00;100585.50;1770182;81;21212;-82
2022/02/10 22:59:34;;;;;;;35.65;23.27;;;;;;;3.79;100.00;100589.56;1770522;81;21268;-76
2022/02/10 23:02:39;;;;;;;33.65;22.48;;;;;;;3.82;100.00;100575.80;1755077;80;21266;-83
2022/02/10 23:05:44;;;;;;;33.78;24.07;;;;;;;3.82;100.00;100582.56;1704814;84;21181;-83
2022/02/10 23:08:49;;;;;;;38.08;24.47;;;;;;;3.81;100.00;100584.91;1739844;82;21331;-83
2022/02/10 23:11:55;;;;;;;32.98;21.80;;;;;;;3.84;100.00;100589.19;1704598;82;21276;-83
2022/02/10 23:14:59;;;;;;;34.88;23.52;;;;;;;3.87;100.00;100583.53;1748121;82;21303;-83
2022/02/10 23:18:05;;;;;;;36.28;24.55;;;;;;;3.91;100.00;100586.86;1711041;82;21323;-76
2022/02/10 23:21:18;;;;;;;33.33;23.50;;;;;;;3.93;100.00;100584.87;1682158;85;21283;-83
2022/02/10 23:24:24;;;;;;;37.53;24.23;;;;;;;3.97;100.00;100591.25;1694739;84;21277;-79
2022/02/10 23:27:29;;;;;;;35.08;23.52;;;;;;;3.97;100.00;100590.39;1712357;82;21184;-75
2022/02/10 23:30:34;;;;;;;36.58;24.32;;;;;;;3.95;100.00;100593.70;1712400;84;21315;-75
2022/02/10 23:33:41;;;;;;;36.05;24.23;;;;;;;3.98;100.00;100597.52;1696827;84;21664;-75
2022/02/10 23:36:51;;;;;;;37.60;24.35;;;;;;;4.03;100.00;100592.58;1727199;83;21228;-76
2022/02/10 23:39:56;;;;;;;34.73;23.38;;;;;;;4.09;100.00;100598.83;1727454;83;21279;-75
2022/02/10 23:43:01;;;;;;;40.30;26.30;;;;;;;4.13;100.00;100594.03;1709222;84;21304;-82
2022/02/10 23:46:06;;;;;;;37.30;24.75;;;;;;;4.18;100.00;100585.87;1712990;83;21284;-81
2022/02/10 23:49:15;;;;;;;39.38;24.52;;;;;;;4.25;100.00;100580.83;1727129;83;21291;-76
2022/02/10 23:52:19;;;;;;;37.98;23.32;;;;;;;4.30;100.00;100588.92;1726938;83;21339;-75
2022/02/10 23:55:33;;;;;;;35.58;23.25;;;;;;;4.31;100.00;100589.28;1726938;83;21271;-75
2022/02/10 23:58:56;;;;;;;34.05;22.02;;;;;;;4.35;100.00;100581.27;1726784;83;21750;-75
